sensor_id;sensor_type;location;lat;lon;timestamp;P1;durP1;ratioP1;P2;durP2;ratioP2
69779;SDS011;57052;55.602;38.096;2023-07-22T00:02:22;9.23;;;3.00;;
69779;SDS011;57052;55.602;38.096;2023-07-22T00:04:48;6.38;;;2.50;;
69779;SDS011;57052;55.602;38.096;2023-07-22T00:07:14;8.35;;;2.65;;
69779;SDS011;57052;55.602;38.096;2023-07-22T00:09:41;9.10;;;2.55;;
69779;SDS011;57052;55.602;38.096;2023-07-22T00:12:07;5.75;;;2.92;;
69779;SDS011;57052;55.602;38.096;2023-07-22T00:14:34;5.13;;;2.67;;
69779;SDS011;57052;55.602;38.096;2023-07-22T00:17:06;6.65;;;2.53;;
69779;SDS011;57052;55.602;38.096;2023-07-22T00:19:31;5.95;;;2.50;;
69779;SDS011;57052;55.602;38.096;2023-07-22T00:21:58;5.30;;;2.40;;
69779;SDS011;57052;55.602;38.096;2023-07-22T00:24:23;5.07;;;2.30;;
69779;SDS011;57052;55.602;38.096;2023-07-22T00:26:49;6.97;;;2.67;;
69779;SDS011;57052;55.602;38.096;2023-07-22T00:29:15;5.70;;;2.40;;
69779;SDS011;57052;55.602;38.096;2023-07-22T00:31:41;5.60;;;2.50;;
69779;SDS011;57052;55.602;38.096;2023-07-22T00:34:07;6.07;;;2.35;;
69779;SDS011;57052;55.602;38.096;2023-07-22T00:36:33;7.85;;;2.22;;
69779;SDS011;57052;55.602;38.096;2023-07-22T00:38:59;7.03;;;2.30;;
69779;SDS011;57052;55.602;38.096;2023-07-22T00:41:26;5.00;;;2.53;;
69779;SDS011;57052;55.602;38.096;2023-07-22T00:43:54;8.30;;;2.40;;
69779;SDS011;57052;55.602;38.096;2023-07-22T00:46:20;5.95;;;2.38;;
69779;SDS011;57052;55.602;38.096;2023-07-22T00:48:46;4.18;;;2.30;;
69779;SDS011;57052;55.602;38.096;2023-07-22T00:51:12;6.22;;;2.47;;
69779;SDS011;57052;55.602;38.096;2023-07-22T00:53:38;4.53;;;2.40;;
69779;SDS011;57052;55.602;38.096;2023-07-22T00:56:04;5.03;;;2.40;;
69779;SDS011;57052;55.602;38.096;2023-07-22T00:58:30;6.45;;;2.22;;
69779;SDS011;57052;55.602;38.096;2023-07-22T01:00:55;6.55;;;2.13;;
69779;SDS011;57052;55.602;38.096;2023-07-22T01:03:21;4.82;;;2.10;;
69779;SDS011;57052;55.602;38.096;2023-07-22T01:05:47;5.05;;;2.33;;
69779;SDS011;57052;55.602;38.096;2023-07-22T01:08:14;5.32;;;2.20;;
69779;SDS011;57052;55.602;38.096;2023-07-22T01:10:39;5.53;;;2.35;;
69779;SDS011;57052;55.602;38.096;2023-07-22T01:13:05;7.75;;;2.35;;
69779;SDS011;57052;55.602;38.096;2023-07-22T01:15:31;5.15;;;2.40;;
69779;SDS011;57052;55.602;38.096;2023-07-22T01:17:57;5.38;;;2.38;;
69779;SDS011;57052;55.602;38.096;2023-07-22T01:20:29;5.95;;;2.40;;
69779;SDS011;57052;55.602;38.096;2023-07-22T01:22:56;4.15;;;2.40;;
69779;SDS011;57052;55.602;38.096;2023-07-22T01:25:22;4.65;;;2.40;;
69779;SDS011;57052;55.602;38.096;2023-07-22T01:27:49;4.85;;;2.10;;
69779;SDS011;57052;55.602;38.096;2023-07-22T01:30:18;4.38;;;2.10;;
69779;SDS011;57052;55.602;38.096;2023-07-22T01:32:44;6.28;;;2.50;;
69779;SDS011;57052;55.602;38.096;2023-07-22T01:35:11;5.22;;;2.20;;
69779;SDS011;57052;55.602;38.096;2023-07-22T01:37:37;5.75;;;2.30;;
69779;SDS011;57052;55.602;38.096;2023-07-22T01:40:03;6.07;;;2.30;;
69779;SDS011;57052;55.602;38.096;2023-07-22T01:42:38;4.03;;;2.30;;
69779;SDS011;57052;55.602;38.096;2023-07-22T01:45:05;5.32;;;2.13;;
69779;SDS011;57052;55.602;38.096;2023-07-22T01:47:35;4.13;;;2.20;;
69779;SDS011;57052;55.602;38.096;2023-07-22T01:50:05;4.40;;;2.00;;
69779;SDS011;57052;55.602;38.096;2023-07-22T01:52:31;3.15;;;1.90;;
69779;SDS011;57052;55.602;38.096;2023-07-22T01:54:57;4.00;;;1.88;;
69779;SDS011;57052;55.602;38.096;2023-07-22T01:57:23;5.35;;;1.98;;
69779;SDS011;57052;55.602;38.096;2023-07-22T01:59:49;8.70;;;2.40;;
69779;SDS011;57052;55.602;38.096;2023-07-22T02:02:14;2.90;;;1.88;;
69779;SDS011;57052;55.602;38.096;2023-07-22T02:04:40;4.28;;;2.20;;
69779;SDS011;57052;55.602;38.096;2023-07-22T02:07:06;4.57;;;2.10;;
69779;SDS011;57052;55.602;38.096;2023-07-22T02:09:31;3.45;;;1.95;;
69779;SDS011;57052;55.602;38.096;2023-07-22T02:11:58;5.60;;;2.03;;
69779;SDS011;57052;55.602;38.096;2023-07-22T02:14:24;6.13;;;2.10;;
69779;SDS011;57052;55.602;38.096;2023-07-22T02:16:50;4.63;;;2.00;;
69779;SDS011;57052;55.602;38.096;2023-07-22T02:19:16;5.88;;;2.17;;
69779;SDS011;57052;55.602;38.096;2023-07-22T02:21:41;4.07;;;2.00;;
69779;SDS011;57052;55.602;38.096;2023-07-22T02:24:07;4.60;;;1.90;;
69779;SDS011;57052;55.602;38.096;2023-07-22T02:26:33;7.47;;;2.13;;
69779;SDS011;57052;55.602;38.096;2023-07-22T02:28:59;4.00;;;1.70;;
69779;SDS011;57052;55.602;38.096;2023-07-22T02:31:25;3.17;;;1.73;;
69779;SDS011;57052;55.602;38.096;2023-07-22T02:33:51;7.45;;;1.80;;
69779;SDS011;57052;55.602;38.096;2023-07-22T02:36:16;4.70;;;2.00;;
69779;SDS011;57052;55.602;38.096;2023-07-22T02:38:42;3.80;;;1.98;;
69779;SDS011;57052;55.602;38.096;2023-07-22T02:41:08;4.35;;;2.10;;
69779;SDS011;57052;55.602;38.096;2023-07-22T02:43:34;5.47;;;1.88;;
69779;SDS011;57052;55.602;38.096;2023-07-22T02:46:05;5.65;;;2.00;;
69779;SDS011;57052;55.602;38.096;2023-07-22T02:48:33;4.97;;;2.10;;
69779;SDS011;57052;55.602;38.096;2023-07-22T02:51:05;3.58;;;1.83;;
69779;SDS011;57052;55.602;38.096;2023-07-22T02:53:33;4.50;;;2.00;;
69779;SDS011;57052;55.602;38.096;2023-07-22T02:55:59;6.57;;;2.22;;
69779;SDS011;57052;55.602;38.096;2023-07-22T02:58:26;3.70;;;1.95;;
69779;SDS011;57052;55.602;38.096;2023-07-22T03:00:51;6.20;;;2.10;;
69779;SDS011;57052;55.602;38.096;2023-07-22T03:03:17;3.28;;;2.00;;
69779;SDS011;57052;55.602;38.096;2023-07-22T03:05:44;3.65;;;2.08;;
69779;SDS011;57052;55.602;38.096;2023-07-22T03:08:10;7.03;;;2.03;;
69779;SDS011;57052;55.602;38.096;2023-07-22T03:10:35;5.18;;;2.00;;
69779;SDS011;57052;55.602;38.096;2023-07-22T03:13:01;4.50;;;2.00;;
69779;SDS011;57052;55.602;38.096;2023-07-22T03:15:28;3.20;;;1.90;;
69779;SDS011;57052;55.602;38.096;2023-07-22T03:17:55;5.30;;;2.10;;
69779;SDS011;57052;55.602;38.096;2023-07-22T03:20:21;3.63;;;1.90;;
69779;SDS011;57052;55.602;38.096;2023-07-22T03:22:48;5.82;;;2.10;;
69779;SDS011;57052;55.602;38.096;2023-07-22T03:25:15;5.05;;;2.25;;
69779;SDS011;57052;55.602;38.096;2023-07-22T03:27:45;4.32;;;2.25;;
69779;SDS011;57052;55.602;38.096;2023-07-22T03:30:12;5.97;;;2.80;;
69779;SDS011;57052;55.602;38.096;2023-07-22T03:32:43;6.10;;;2.60;;
69779;SDS011;57052;55.602;38.096;2023-07-22T03:35:10;10.27;;;2.72;;
69779;SDS011;57052;55.602;38.096;2023-07-22T03:37:37;5.32;;;2.65;;
69779;SDS011;57052;55.602;38.096;2023-07-22T03:40:03;5.45;;;2.70;;
69779;SDS011;57052;55.602;38.096;2023-07-22T03:42:36;6.60;;;2.63;;
69779;SDS011;57052;55.602;38.096;2023-07-22T03:45:03;4.97;;;2.70;;
69779;SDS011;57052;55.602;38.096;2023-07-22T03:47:29;5.70;;;2.30;;
69779;SDS011;57052;55.602;38.096;2023-07-22T03:49:55;4.50;;;2.22;;
69779;SDS011;57052;55.602;38.096;2023-07-22T03:52:20;4.97;;;2.38;;
69779;SDS011;57052;55.602;38.096;2023-07-22T03:54:46;4.10;;;2.03;;
69779;SDS011;57052;55.602;38.096;2023-07-22T03:57:12;4.60;;;2.22;;
69779;SDS011;57052;55.602;38.096;2023-07-22T03:59:38;7.70;;;2.17;;
69779;SDS011;57052;55.602;38.096;2023-07-22T04:02:04;3.53;;;2.00;;
69779;SDS011;57052;55.602;38.096;2023-07-22T04:04:30;3.67;;;2.03;;
69779;SDS011;57052;55.602;38.096;2023-07-22T04:06:56;4.68;;;2.50;;
69779;SDS011;57052;55.602;38.096;2023-07-22T04:09:22;4.90;;;2.15;;
69779;SDS011;57052;55.602;38.096;2023-07-22T04:11:47;6.85;;;2.88;;
69779;SDS011;57052;55.602;38.096;2023-07-22T04:14:13;5.20;;;2.20;;
69779;SDS011;57052;55.602;38.096;2023-07-22T04:16:39;6.22;;;2.40;;
69779;SDS011;57052;55.602;38.096;2023-07-22T04:19:05;5.65;;;2.20;;
69779;SDS011;57052;55.602;38.096;2023-07-22T04:21:31;4.25;;;2.25;;
69779;SDS011;57052;55.602;38.096;2023-07-22T04:23:57;7.07;;;2.78;;
69779;SDS011;57052;55.602;38.096;2023-07-22T04:26:22;8.43;;;2.80;;
69779;SDS011;57052;55.602;38.096;2023-07-22T04:28:48;4.82;;;2.67;;
69779;SDS011;57052;55.602;38.096;2023-07-22T04:31:14;5.85;;;2.63;;
69779;SDS011;57052;55.602;38.096;2023-07-22T04:33:39;6.95;;;2.60;;
69779;SDS011;57052;55.602;38.096;2023-07-22T04:36:06;5.57;;;2.55;;
69779;SDS011;57052;55.602;38.096;2023-07-22T04:38:32;6.30;;;2.60;;
69779;SDS011;57052;55.602;38.096;2023-07-22T04:40:58;6.30;;;3.20;;
69779;SDS011;57052;55.602;38.096;2023-07-22T04:43:26;5.05;;;2.70;;
69779;SDS011;57052;55.602;38.096;2023-07-22T04:45:52;5.88;;;2.25;;
69779;SDS011;57052;55.602;38.096;2023-07-22T04:48:19;6.47;;;2.08;;
69779;SDS011;57052;55.602;38.096;2023-07-22T04:50:45;8.40;;;2.53;;
69779;SDS011;57052;55.602;38.096;2023-07-22T04:53:12;6.80;;;2.33;;
69779;SDS011;57052;55.602;38.096;2023-07-22T04:55:40;5.55;;;2.22;;
69779;SDS011;57052;55.602;38.096;2023-07-22T04:58:07;3.20;;;1.83;;
69779;SDS011;57052;55.602;38.096;2023-07-22T05:00:33;5.20;;;2.42;;
69779;SDS011;57052;55.602;38.096;2023-07-22T05:02:59;5.65;;;2.30;;
69779;SDS011;57052;55.602;38.096;2023-07-22T05:05:25;7.03;;;2.10;;
69779;SDS011;57052;55.602;38.096;2023-07-22T05:07:51;4.07;;;2.03;;
69779;SDS011;57052;55.602;38.096;2023-07-22T05:10:18;6.47;;;2.40;;
69779;SDS011;57052;55.602;38.096;2023-07-22T05:12:45;4.32;;;1.70;;
69779;SDS011;57052;55.602;38.096;2023-07-22T05:15:11;7.90;;;2.50;;
69779;SDS011;57052;55.602;38.096;2023-07-22T05:17:38;6.85;;;2.10;;
69779;SDS011;57052;55.602;38.096;2023-07-22T05:20:04;3.08;;;1.67;;
69779;SDS011;57052;55.602;38.096;2023-07-22T05:22:40;8.05;;;2.10;;
69779;SDS011;57052;55.602;38.096;2023-07-22T05:25:07;5.65;;;1.80;;
69779;SDS011;57052;55.602;38.096;2023-07-22T05:27:33;6.18;;;1.90;;
69779;SDS011;57052;55.602;38.096;2023-07-22T05:29:59;6.57;;;1.90;;
69779;SDS011;57052;55.602;38.096;2023-07-22T05:32:25;9.07;;;2.05;;
69779;SDS011;57052;55.602;38.096;2023-07-22T05:34:55;3.67;;;1.60;;
69779;SDS011;57052;55.602;38.096;2023-07-22T05:37:21;5.05;;;1.60;;
69779;SDS011;57052;55.602;38.096;2023-07-22T05:39:48;3.03;;;1.42;;
69779;SDS011;57052;55.602;38.096;2023-07-22T05:42:13;4.30;;;1.55;;
69779;SDS011;57052;55.602;38.096;2023-07-22T05:44:39;2.38;;;1.40;;
69779;SDS011;57052;55.602;38.096;2023-07-22T05:47:05;3.03;;;1.67;;
69779;SDS011;57052;55.602;38.096;2023-07-22T05:49:31;2.75;;;1.20;;
69779;SDS011;57052;55.602;38.096;2023-07-22T05:51:56;3.10;;;1.13;;
69779;SDS011;57052;55.602;38.096;2023-07-22T05:54:22;3.28;;;1.38;;
69779;SDS011;57052;55.602;38.096;2023-07-22T05:56:48;4.20;;;1.33;;
69779;SDS011;57052;55.602;38.096;2023-07-22T05:59:13;4.57;;;1.75;;
69779;SDS011;57052;55.602;38.096;2023-07-22T06:01:39;8.57;;;1.88;;
69779;SDS011;57052;55.602;38.096;2023-07-22T06:04:05;4.07;;;1.30;;
69779;SDS011;57052;55.602;38.096;2023-07-22T06:06:31;4.80;;;1.25;;
69779;SDS011;57052;55.602;38.096;2023-07-22T06:08:57;5.50;;;1.50;;
69779;SDS011;57052;55.602;38.096;2023-07-22T06:11:23;3.28;;;1.20;;
69779;SDS011;57052;55.602;38.096;2023-07-22T06:13:48;4.70;;;1.30;;
69779;SDS011;57052;55.602;38.096;2023-07-22T06:16:14;2.70;;;1.17;;
69779;SDS011;57052;55.602;38.096;2023-07-22T06:18:40;4.60;;;1.10;;
69779;SDS011;57052;55.602;38.096;2023-07-22T06:21:06;4.63;;;1.20;;
69779;SDS011;57052;55.602;38.096;2023-07-22T06:23:32;6.38;;;1.30;;
69779;SDS011;57052;55.602;38.096;2023-07-22T06:25:57;2.42;;;1.00;;
69779;SDS011;57052;55.602;38.096;2023-07-22T06:28:23;3.65;;;1.40;;
69779;SDS011;57052;55.602;38.096;2023-07-22T06:30:49;2.58;;;1.00;;
69779;SDS011;57052;55.602;38.096;2023-07-22T06:33:14;2.33;;;1.10;;
69779;SDS011;57052;55.602;38.096;2023-07-22T06:35:41;1.80;;;1.00;;
69779;SDS011;57052;55.602;38.096;2023-07-22T06:38:07;2.30;;;1.30;;
69779;SDS011;57052;55.602;38.096;2023-07-22T06:40:33;3.17;;;1.10;;
69779;SDS011;57052;55.602;38.096;2023-07-22T06:42:58;5.70;;;2.22;;
69779;SDS011;57052;55.602;38.096;2023-07-22T06:45:24;4.63;;;1.55;;
69779;SDS011;57052;55.602;38.096;2023-07-22T06:47:50;3.33;;;1.38;;
69779;SDS011;57052;55.602;38.096;2023-07-22T06:50:15;3.35;;;1.30;;
69779;SDS011;57052;55.602;38.096;2023-07-22T06:52:41;5.30;;;1.35;;
69779;SDS011;57052;55.602;38.096;2023-07-22T06:55:07;2.33;;;1.20;;
69779;SDS011;57052;55.602;38.096;2023-07-22T06:57:33;2.78;;;1.50;;
69779;SDS011;57052;55.602;38.096;2023-07-22T06:59:59;4.57;;;1.75;;
69779;SDS011;57052;55.602;38.096;2023-07-22T07:02:25;4.10;;;1.90;;
69779;SDS011;57052;55.602;38.096;2023-07-22T07:04:51;4.95;;;1.65;;
69779;SDS011;57052;55.602;38.096;2023-07-22T07:07:16;4.57;;;1.90;;
69779;SDS011;57052;55.602;38.096;2023-07-22T07:09:42;3.35;;;1.42;;
69779;SDS011;57052;55.602;38.096;2023-07-22T07:12:08;4.20;;;1.60;;
69779;SDS011;57052;55.602;38.096;2023-07-22T07:14:34;3.13;;;1.50;;
69779;SDS011;57052;55.602;38.096;2023-07-22T07:17:01;3.42;;;1.80;;
69779;SDS011;57052;55.602;38.096;2023-07-22T07:19:27;3.15;;;1.33;;
69779;SDS011;57052;55.602;38.096;2023-07-22T07:21:53;3.58;;;1.83;;
69779;SDS011;57052;55.602;38.096;2023-07-22T07:24:19;2.95;;;1.30;;
69779;SDS011;57052;55.602;38.096;2023-07-22T07:26:45;2.78;;;1.50;;
69779;SDS011;57052;55.602;38.096;2023-07-22T07:29:11;2.67;;;1.30;;
69779;SDS011;57052;55.602;38.096;2023-07-22T07:31:37;1.88;;;1.20;;
69779;SDS011;57052;55.602;38.096;2023-07-22T07:34:03;1.92;;;1.00;;
69779;SDS011;57052;55.602;38.096;2023-07-22T07:36:29;5.63;;;1.38;;
69779;SDS011;57052;55.602;38.096;2023-07-22T07:38:55;3.05;;;1.20;;
69779;SDS011;57052;55.602;38.096;2023-07-22T07:41:20;1.42;;;1.08;;
69779;SDS011;57052;55.602;38.096;2023-07-22T07:43:46;2.42;;;1.10;;
69779;SDS011;57052;55.602;38.096;2023-07-22T07:46:27;3.53;;;1.20;;
69779;SDS011;57052;55.602;38.096;2023-07-22T07:48:57;2.93;;;1.27;;
69779;SDS011;57052;55.602;38.096;2023-07-22T07:51:27;2.33;;;1.20;;
69779;SDS011;57052;55.602;38.096;2023-07-22T07:53:55;1.70;;;1.20;;
69779;SDS011;57052;55.602;38.096;2023-07-22T07:56:23;2.70;;;1.20;;
69779;SDS011;57052;55.602;38.096;2023-07-22T07:58:49;1.92;;;1.20;;
69779;SDS011;57052;55.602;38.096;2023-07-22T08:01:16;3.03;;;1.60;;
69779;SDS011;57052;55.602;38.096;2023-07-22T08:03:42;2.67;;;1.23;;
69779;SDS011;57052;55.602;38.096;2023-07-22T08:06:09;2.55;;;1.30;;
69779;SDS011;57052;55.602;38.096;2023-07-22T08:08:35;5.03;;;2.00;;
69779;SDS011;57052;55.602;38.096;2023-07-22T08:11:08;4.68;;;1.98;;
69779;SDS011;57052;55.602;38.096;2023-07-22T08:13:36;4.50;;;1.73;;
69779;SDS011;57052;55.602;38.096;2023-07-22T08:16:04;5.97;;;1.65;;
69779;SDS011;57052;55.602;38.096;2023-07-22T08:18:32;4.13;;;1.65;;
69779;SDS011;57052;55.602;38.096;2023-07-22T08:20:59;2.58;;;1.40;;
69779;SDS011;57052;55.602;38.096;2023-07-22T08:23:26;3.33;;;1.50;;
69779;SDS011;57052;55.602;38.096;2023-07-22T08:25:51;1.75;;;1.20;;
69779;SDS011;57052;55.602;38.096;2023-07-22T08:28:17;5.47;;;1.52;;
69779;SDS011;57052;55.602;38.096;2023-07-22T08:30:43;2.88;;;1.35;;
69779;SDS011;57052;55.602;38.096;2023-07-22T08:33:11;3.58;;;1.00;;
69779;SDS011;57052;55.602;38.096;2023-07-22T08:35:38;5.30;;;1.48;;
69779;SDS011;57052;55.602;38.096;2023-07-22T08:38:04;2.83;;;1.10;;
69779;SDS011;57052;55.602;38.096;2023-07-22T08:40:37;3.17;;;1.20;;
69779;SDS011;57052;55.602;38.096;2023-07-22T08:43:04;2.28;;;1.10;;
69779;SDS011;57052;55.602;38.096;2023-07-22T08:45:32;3.03;;;1.10;;
69779;SDS011;57052;55.602;38.096;2023-07-22T08:48:03;3.00;;;1.20;;
69779;SDS011;57052;55.602;38.096;2023-07-22T08:53:13;1.92;;;0.90;;
69779;SDS011;57052;55.602;38.096;2023-07-22T08:55:39;1.95;;;0.93;;
69779;SDS011;57052;55.602;38.096;2023-07-22T08:58:11;3.95;;;0.93;;
69779;SDS011;57052;55.602;38.096;2023-07-22T09:00:38;2.25;;;1.10;;
69779;SDS011;57052;55.602;38.096;2023-07-22T09:03:04;3.47;;;1.60;;
69779;SDS011;57052;55.602;38.096;2023-07-22T09:05:31;2.22;;;1.20;;
69779;SDS011;57052;55.602;38.096;2023-07-22T09:07:58;3.20;;;1.55;;
69779;SDS011;57052;55.602;38.096;2023-07-22T09:10:24;6.75;;;1.30;;
69779;SDS011;57052;55.602;38.096;2023-07-22T09:12:53;5.13;;;1.10;;
69779;SDS011;57052;55.602;38.096;2023-07-22T09:15:19;1.95;;;1.00;;
69779;SDS011;57052;55.602;38.096;2023-07-22T09:17:45;2.58;;;1.20;;
69779;SDS011;57052;55.602;38.096;2023-07-22T09:20:12;4.57;;;1.40;;
69779;SDS011;57052;55.602;38.096;2023-07-22T09:22:44;1.90;;;1.05;;
69779;SDS011;57052;55.602;38.096;2023-07-22T09:25:12;3.17;;;1.45;;
69779;SDS011;57052;55.602;38.096;2023-07-22T09:27:42;2.55;;;1.27;;
69779;SDS011;57052;55.602;38.096;2023-07-22T09:30:53;2.63;;;1.13;;
69779;SDS011;57052;55.602;38.096;2023-07-22T09:32:59;5.80;;;1.45;;
69779;SDS011;57052;55.602;38.096;2023-07-22T09:35:28;2.15;;;1.00;;
69779;SDS011;57052;55.602;38.096;2023-07-22T09:37:55;3.67;;;1.20;;
69779;SDS011;57052;55.602;38.096;2023-07-22T09:40:25;2.67;;;1.02;;
69779;SDS011;57052;55.602;38.096;2023-07-22T09:42:56;2.45;;;0.95;;
69779;SDS011;57052;55.602;38.096;2023-07-22T09:45:28;2.55;;;1.05;;
69779;SDS011;57052;55.602;38.096;2023-07-22T09:47:56;2.67;;;1.10;;
69779;SDS011;57052;55.602;38.096;2023-07-22T09:50:22;4.07;;;1.20;;
69779;SDS011;57052;55.602;38.096;2023-07-22T09:52:54;2.13;;;1.20;;
69779;SDS011;57052;55.602;38.096;2023-07-22T09:55:22;6.63;;;2.00;;
69779;SDS011;57052;55.602;38.096;2023-07-22T10:00:23;2.10;;;1.13;;
69779;SDS011;57052;55.602;38.096;2023-07-22T10:02:53;3.40;;;1.23;;
69779;SDS011;57052;55.602;38.096;2023-07-22T10:05:21;3.72;;;1.25;;
69779;SDS011;57052;55.602;38.096;2023-07-22T10:07:57;3.08;;;1.48;;
69779;SDS011;57052;55.602;38.096;2023-07-22T10:10:42;3.78;;;1.50;;
69779;SDS011;57052;55.602;38.096;2023-07-22T10:13:10;3.03;;;1.27;;
69779;SDS011;57052;55.602;38.096;2023-07-22T10:15:36;3.70;;;1.20;;
69779;SDS011;57052;55.602;38.096;2023-07-22T10:18:02;2.55;;;1.33;;
69779;SDS011;57052;55.602;38.096;2023-07-22T10:20:30;2.15;;;1.20;;
69779;SDS011;57052;55.602;38.096;2023-07-22T10:23:00;2.10;;;0.98;;
69779;SDS011;57052;55.602;38.096;2023-07-22T10:25:26;2.20;;;1.10;;
69779;SDS011;57052;55.602;38.096;2023-07-22T10:27:52;2.00;;;1.00;;
69779;SDS011;57052;55.602;38.096;2023-07-22T10:30:18;3.67;;;1.00;;
69779;SDS011;57052;55.602;38.096;2023-07-22T10:32:45;2.60;;;1.00;;
69779;SDS011;57052;55.602;38.096;2023-07-22T10:38:13;2.72;;;1.38;;
69779;SDS011;57052;55.602;38.096;2023-07-22T10:40:59;2.45;;;1.40;;
69779;SDS011;57052;55.602;38.096;2023-07-22T10:43:31;3.97;;;1.20;;
69779;SDS011;57052;55.602;38.096;2023-07-22T10:46:05;2.78;;;1.20;;
69779;SDS011;57052;55.602;38.096;2023-07-22T10:48:34;2.63;;;1.33;;
69779;SDS011;57052;55.602;38.096;2023-07-22T10:51:12;3.65;;;1.30;;
69779;SDS011;57052;55.602;38.096;2023-07-22T10:53:45;3.00;;;1.00;;
69779;SDS011;57052;55.602;38.096;2023-07-22T10:56:13;1.65;;;1.10;;
69779;SDS011;57052;55.602;38.096;2023-07-22T11:01:22;1.67;;;0.90;;
69779;SDS011;57052;55.602;38.096;2023-07-22T11:12:16;2.20;;;0.90;;
69779;SDS011;57052;55.602;38.096;2023-07-22T11:14:45;3.88;;;1.20;;
69779;SDS011;57052;55.602;38.096;2023-07-22T11:17:11;6.25;;;1.10;;
69779;SDS011;57052;55.602;38.096;2023-07-22T11:19:38;3.90;;;1.00;;
69779;SDS011;57052;55.602;38.096;2023-07-22T11:22:04;4.97;;;0.95;;
69779;SDS011;57052;55.602;38.096;2023-07-22T11:24:32;2.78;;;1.02;;
69779;SDS011;57052;55.602;38.096;2023-07-22T11:27:00;2.83;;;1.10;;
69779;SDS011;57052;55.602;38.096;2023-07-22T11:29:28;5.53;;;1.17;;
69779;SDS011;57052;55.602;38.096;2023-07-22T11:31:54;2.67;;;1.00;;
69779;SDS011;57052;55.602;38.096;2023-07-22T11:34:23;3.50;;;1.10;;
69779;SDS011;57052;55.602;38.096;2023-07-22T11:36:50;2.25;;;1.20;;
69779;SDS011;57052;55.602;38.096;2023-07-22T11:39:18;6.93;;;1.27;;
69779;SDS011;57052;55.602;38.096;2023-07-22T11:41:45;1.83;;;1.20;;
69779;SDS011;57052;55.602;38.096;2023-07-22T11:44:12;2.55;;;1.27;;
69779;SDS011;57052;55.602;38.096;2023-07-22T11:49:46;3.28;;;0.90;;
69779;SDS011;57052;55.602;38.096;2023-07-22T11:52:16;3.42;;;1.00;;
69779;SDS011;57052;55.602;38.096;2023-07-22T11:54:43;4.78;;;1.30;;
69779;SDS011;57052;55.602;38.096;2023-07-22T11:57:14;5.43;;;1.30;;
69779;SDS011;57052;55.602;38.096;2023-07-22T11:59:47;5.70;;;1.27;;
69779;SDS011;57052;55.602;38.096;2023-07-22T12:02:23;2.53;;;1.20;;
69779;SDS011;57052;55.602;38.096;2023-07-22T12:04:55;3.33;;;1.00;;
69779;SDS011;57052;55.602;38.096;2023-07-22T12:07:25;1.90;;;1.00;;
69779;SDS011;57052;55.602;38.096;2023-07-22T12:09:53;11.27;;;1.50;;
69779;SDS011;57052;55.602;38.096;2023-07-22T12:12:19;3.25;;;0.93;;
69779;SDS011;57052;55.602;38.096;2023-07-22T12:14:45;4.00;;;1.00;;
69779;SDS011;57052;55.602;38.096;2023-07-22T12:17:11;6.60;;;1.50;;
69779;SDS011;57052;55.602;38.096;2023-07-22T12:19:37;4.80;;;1.38;;
69779;SDS011;57052;55.602;38.096;2023-07-22T12:22:02;3.83;;;1.70;;
69779;SDS011;57052;55.602;38.096;2023-07-22T12:24:29;2.08;;;1.10;;
69779;SDS011;57052;55.602;38.096;2023-07-22T12:26:55;2.22;;;1.50;;
69779;SDS011;57052;55.602;38.096;2023-07-22T12:29:20;1.83;;;1.20;;
69779;SDS011;57052;55.602;38.096;2023-07-22T12:31:47;2.10;;;1.10;;
69779;SDS011;57052;55.602;38.096;2023-07-22T12:34:14;1.65;;;0.82;;
69779;SDS011;57052;55.602;38.096;2023-07-22T12:36:40;3.80;;;1.08;;
69779;SDS011;57052;55.602;38.096;2023-07-22T12:39:06;2.13;;;1.00;;
69779;SDS011;57052;55.602;38.096;2023-07-22T12:41:32;4.43;;;1.20;;
69779;SDS011;57052;55.602;38.096;2023-07-22T12:43:57;4.55;;;1.33;;
69779;SDS011;57052;55.602;38.096;2023-07-22T12:46:23;1.65;;;1.00;;
69779;SDS011;57052;55.602;38.096;2023-07-22T12:48:49;4.35;;;1.10;;
69779;SDS011;57052;55.602;38.096;2023-07-22T12:51:14;3.03;;;1.00;;
69779;SDS011;57052;55.602;38.096;2023-07-22T12:53:40;3.83;;;0.88;;
69779;SDS011;57052;55.602;38.096;2023-07-22T12:56:06;2.60;;;1.02;;
69779;SDS011;57052;55.602;38.096;2023-07-22T12:58:32;2.35;;;1.08;;
69779;SDS011;57052;55.602;38.096;2023-07-22T13:00:58;1.88;;;1.17;;
69779;SDS011;57052;55.602;38.096;2023-07-22T13:03:24;2.13;;;0.90;;
69779;SDS011;57052;55.602;38.096;2023-07-22T13:05:50;3.47;;;0.95;;
69779;SDS011;57052;55.602;38.096;2023-07-22T13:08:15;3.35;;;1.00;;
69779;SDS011;57052;55.602;38.096;2023-07-22T13:10:41;3.20;;;1.00;;
69779;SDS011;57052;55.602;38.096;2023-07-22T13:13:10;4.60;;;1.05;;
69779;SDS011;57052;55.602;38.096;2023-07-22T13:15:36;3.35;;;1.13;;
69779;SDS011;57052;55.602;38.096;2023-07-22T13:18:01;2.63;;;1.10;;
69779;SDS011;57052;55.602;38.096;2023-07-22T13:20:28;3.03;;;1.20;;
69779;SDS011;57052;55.602;38.096;2023-07-22T13:22:54;3.15;;;1.20;;
69779;SDS011;57052;55.602;38.096;2023-07-22T13:25:21;3.58;;;1.17;;
69779;SDS011;57052;55.602;38.096;2023-07-22T13:27:47;3.75;;;1.10;;
69779;SDS011;57052;55.602;38.096;2023-07-22T13:30:12;2.70;;;1.10;;
69779;SDS011;57052;55.602;38.096;2023-07-22T13:32:38;3.08;;;1.10;;
69779;SDS011;57052;55.602;38.096;2023-07-22T13:35:05;3.65;;;1.10;;
69779;SDS011;57052;55.602;38.096;2023-07-22T13:37:31;2.75;;;1.10;;
69779;SDS011;57052;55.602;38.096;2023-07-22T13:39:56;3.00;;;1.15;;
69779;SDS011;57052;55.602;38.096;2023-07-22T13:42:23;5.10;;;1.23;;
69779;SDS011;57052;55.602;38.096;2023-07-22T13:44:50;3.15;;;1.30;;
69779;SDS011;57052;55.602;38.096;2023-07-22T13:47:15;2.90;;;1.33;;
69779;SDS011;57052;55.602;38.096;2023-07-22T13:49:41;2.42;;;1.40;;
69779;SDS011;57052;55.602;38.096;2023-07-22T13:52:07;5.22;;;3.13;;
69779;SDS011;57052;55.602;38.096;2023-07-22T13:54:32;8.32;;;2.20;;
69779;SDS011;57052;55.602;38.096;2023-07-22T13:56:58;2.97;;;1.33;;
69779;SDS011;57052;55.602;38.096;2023-07-22T13:59:23;2.42;;;1.40;;
69779;SDS011;57052;55.602;38.096;2023-07-22T14:01:49;2.50;;;1.10;;
69779;SDS011;57052;55.602;38.096;2023-07-22T14:04:15;6.35;;;1.33;;
69779;SDS011;57052;55.602;38.096;2023-07-22T14:06:40;3.28;;;1.30;;
69779;SDS011;57052;55.602;38.096;2023-07-22T14:09:06;2.97;;;1.17;;
69779;SDS011;57052;55.602;38.096;2023-07-22T14:11:32;3.83;;;1.50;;
69779;SDS011;57052;55.602;38.096;2023-07-22T14:13:57;3.53;;;1.30;;
69779;SDS011;57052;55.602;38.096;2023-07-22T14:16:23;4.80;;;1.20;;
69779;SDS011;57052;55.602;38.096;2023-07-22T14:18:49;2.28;;;1.23;;
69779;SDS011;57052;55.602;38.096;2023-07-22T14:21:17;5.80;;;1.33;;
69779;SDS011;57052;55.602;38.096;2023-07-22T14:23:42;3.30;;;1.20;;
69779;SDS011;57052;55.602;38.096;2023-07-22T14:26:09;3.08;;;1.25;;
69779;SDS011;57052;55.602;38.096;2023-07-22T14:28:34;4.85;;;1.30;;
69779;SDS011;57052;55.602;38.096;2023-07-22T14:31:00;2.58;;;1.20;;
69779;SDS011;57052;55.602;38.096;2023-07-22T14:33:26;3.45;;;1.52;;
69779;SDS011;57052;55.602;38.096;2023-07-22T14:35:51;3.40;;;1.38;;
69779;SDS011;57052;55.602;38.096;2023-07-22T14:38:17;4.53;;;1.35;;
69779;SDS011;57052;55.602;38.096;2023-07-22T14:40:43;5.45;;;2.70;;
69779;SDS011;57052;55.602;38.096;2023-07-22T14:43:08;4.85;;;1.55;;
69779;SDS011;57052;55.602;38.096;2023-07-22T14:45:34;3.10;;;1.40;;
69779;SDS011;57052;55.602;38.096;2023-07-22T14:48:00;3.45;;;1.75;;
69779;SDS011;57052;55.602;38.096;2023-07-22T14:50:25;4.18;;;1.30;;
69779;SDS011;57052;55.602;38.096;2023-07-22T14:52:51;4.13;;;1.40;;
69779;SDS011;57052;55.602;38.096;2023-07-22T14:55:17;4.32;;;1.85;;